Time;durP1;ratioP1;P1;durP2;ratioP2;P2;SDS_P1;SDS_P2;PMS_P1;PMS_P2;Temp;Humidity;BMP_temperature;BMP_pressure;BME280_temperature;BME280_humidity;BME280_pressure;Samples;Min_cycle;Max_cycle;Signal;HPM_P1;HPM_P2
2023/07/18 00:00:51;;;;;;;9.50;5.20;;;;;;;;;;107502;1249;61235;-81
2023/07/18 00:03:36;;;;;;;8.20;5.40;;;;;;;;;;110038;1248;58896;-81
2023/07/18 00:06:03;;;;;;;9.00;5.00;;;;;;;;;;109260;1250;61198;-81
2023/07/18 00:08:29;;;;;;;11.60;6.30;;;;;;;;;;107480;1249;61504;-81
2023/07/18 00:10:56;;;;;;;11.90;5.40;;;;;;;;;;107498;1251;61260;-81
2023/07/18 00:13:23;;;;;;;6.80;5.30;;;;;;;;;;107443;1251;61311;-80
2023/07/18 00:15:49;;;;;;;8.30;4.80;;;;;;;;;;107478;1249;61263;-80
2023/07/18 00:18:16;;;;;;;8.10;5.60;;;;;;;;;;107473;1250;61306;-80
2023/07/18 00:20:42;;;;;;;7.40;4.80;;;;;;;;;;107516;1249;61245;-80
2023/07/18 00:23:10;;;;;;;8.50;5.80;;;;;;;;;;107587;1250;61329;-81
2023/07/18 00:25:36;;;;;;;9.30;5.70;;;;;;;;;;107469;1250;61250;-81
2023/07/18 00:28:03;;;;;;;8.70;5.80;;;;;;;;;;107433;1250;60230;-81
2023/07/18 00:30:29;;;;;;;9.20;5.90;;;;;;;;;;107509;1250;61979;-81
2023/07/18 00:32:59;;;;;;;7.20;5.30;;;;;;;;;;107397;1253;61211;-80
2023/07/18 00:35:26;;;;;;;9.70;5.60;;;;;;;;;;107392;1250;61338;-81
2023/07/18 00:37:53;;;;;;;10.20;5.00;;;;;;;;;;107450;1250;61328;-81
2023/07/18 00:40:19;;;;;;;10.40;5.30;;;;;;;;;;107448;1249;61301;-81
2023/07/18 00:42:47;;;;;;;12.10;6.00;;;;;;;;;;107412;1250;61105;-81
2023/07/18 00:45:13;;;;;;;8.90;5.40;;;;;;;;;;107373;1253;61215;-81
2023/07/18 00:47:41;;;;;;;8.00;4.70;;;;;;;;;;107422;1254;60380;-81
2023/07/18 00:50:08;;;;;;;6.30;5.20;;;;;;;;;;107372;1250;60805;-81
2023/07/18 00:52:35;;;;;;;8.40;5.00;;;;;;;;;;107397;1250;61201;-81
2023/07/18 00:55:03;;;;;;;6.30;4.90;;;;;;;;;;107404;1249;61199;-82
2023/07/18 00:57:30;;;;;;;8.60;5.30;;;;;;;;;;107388;1249;61337;-81
2023/07/18 00:59:56;;;;;;;9.90;5.20;;;;;;;;;;107373;1249;61320;-82
2023/07/18 01:02:22;;;;;;;7.90;5.80;;;;;;;;;;107380;1254;61317;-80
2023/07/18 01:04:49;;;;;;;13.10;5.10;;;;;;;;;;107362;1249;61310;-81
2023/07/18 01:07:15;;;;;;;11.20;5.00;;;;;;;;;;107426;1251;61331;-81
2023/07/18 01:09:43;;;;;;;8.80;5.00;;;;;;;;;;107413;1250;61237;-81
2023/07/18 01:12:10;;;;;;;10.30;5.40;;;;;;;;;;107502;1250;61305;-81
2023/07/18 01:14:36;;;;;;;10.90;5.80;;;;;;;;;;107509;1248;61284;-81
2023/07/18 01:17:05;;;;;;;9.10;4.80;;;;;;;;;;107454;1249;61302;-81
2023/07/18 01:19:32;;;;;;;7.30;5.30;;;;;;;;;;108340;1250;61311;-81
2023/07/18 01:21:58;;;;;;;8.10;4.40;;;;;;;;;;107628;1248;61235;-82
2023/07/18 01:24:25;;;;;;;6.70;4.70;;;;;;;;;;109431;1248;59822;-82
2023/07/18 01:26:52;;;;;;;12.40;4.70;;;;;;;;;;110021;1250;58881;-82
2023/07/18 01:29:19;;;;;;;8.00;5.20;;;;;;;;;;110003;1249;58854;-82
2023/07/18 01:31:48;;;;;;;6.30;4.90;;;;;;;;;;109981;1249;59768;-81
2023/07/18 01:34:14;;;;;;;7.30;5.00;;;;;;;;;;109947;1249;58794;-82
2023/07/18 01:36:41;;;;;;;12.40;5.60;;;;;;;;;;109942;1249;59178;-82
2023/07/18 01:39:08;;;;;;;6.70;5.50;;;;;;;;;;109928;1249;58908;-81
2023/07/18 01:41:34;;;;;;;9.60;6.70;;;;;;;;;;109957;1249;58880;-82
2023/07/18 01:44:01;;;;;;;8.50;5.00;;;;;;;;;;109925;1249;58952;-82
2023/07/18 01:46:27;;;;;;;8.00;5.80;;;;;;;;;;109967;1249;59060;-81
2023/07/18 01:48:53;;;;;;;8.50;5.00;;;;;;;;;;107677;1254;61335;-81
2023/07/18 01:51:20;;;;;;;8.30;4.70;;;;;;;;;;107361;1249;61354;-81
2023/07/18 01:53:46;;;;;;;9.60;4.50;;;;;;;;;;107397;1250;61218;-81
2023/07/18 01:56:13;;;;;;;9.60;4.70;;;;;;;;;;107364;1249;61263;-81
2023/07/18 01:58:39;;;;;;;11.70;5.40;;;;;;;;;;107431;1249;61198;-81
2023/07/18 02:01:06;;;;;;;6.80;4.70;;;;;;;;;;107386;1249;61223;-81
2023/07/18 02:03:33;;;;;;;12.00;5.50;;;;;;;;;;107383;1249;61321;-81
2023/07/18 02:06:00;;;;;;;6.40;4.60;;;;;;;;;;107401;1249;61196;-82
2023/07/18 02:08:26;;;;;;;6.50;4.90;;;;;;;;;;107376;1250;61137;-81
2023/07/18 02:10:53;;;;;;;7.40;4.20;;;;;;;;;;107472;1252;61209;-81
2023/07/18 02:13:19;;;;;;;10.30;5.40;;;;;;;;;;107405;1252;61234;-82
2023/07/18 02:15:46;;;;;;;8.90;5.80;;;;;;;;;;107533;1252;61212;-81
2023/07/18 02:18:13;;;;;;;11.00;5.90;;;;;;;;;;107557;1250;61341;-81
2023/07/18 02:20:39;;;;;;;9.20;6.70;;;;;;;;;;107418;1250;61136;-81
2023/07/18 02:23:06;;;;;;;8.20;5.80;;;;;;;;;;107503;1252;61270;-81
2023/07/18 02:25:32;;;;;;;9.40;6.30;;;;;;;;;;107450;1252;61275;-81
2023/07/18 02:27:59;;;;;;;9.50;6.80;;;;;;;;;;107472;1250;61263;-81
2023/07/18 02:30:25;;;;;;;8.20;5.50;;;;;;;;;;107465;1249;61106;-81
2023/07/18 02:32:51;;;;;;;6.30;4.70;;;;;;;;;;107438;1251;61276;-82
2023/07/18 02:35:19;;;;;;;6.60;5.10;;;;;;;;;;107398;1250;61324;-81
2023/07/18 02:37:46;;;;;;;7.20;5.20;;;;;;;;;;107392;1252;59716;-82
2023/07/18 02:40:13;;;;;;;10.70;5.70;;;;;;;;;;107404;1254;61121;-81
2023/07/18 02:42:40;;;;;;;9.10;5.10;;;;;;;;;;107420;1250;61231;-81
2023/07/18 02:45:08;;;;;;;9.80;5.90;;;;;;;;;;109817;1249;58815;-81
2023/07/18 02:47:35;;;;;;;6.90;4.90;;;;;;;;;;109925;1249;59005;-81
2023/07/18 02:50:01;;;;;;;6.90;4.40;;;;;;;;;;109947;1249;58798;-82
2023/07/18 02:52:27;;;;;;;8.90;4.60;;;;;;;;;;109925;1249;59228;-81
2023/07/18 02:54:54;;;;;;;6.80;4.80;;;;;;;;;;109958;1249;58963;-81
2023/07/18 02:57:20;;;;;;;7.50;4.50;;;;;;;;;;109948;1249;58880;-81
2023/07/18 02:59:47;;;;;;;11.70;5.30;;;;;;;;;;108002;1249;61167;-81
2023/07/18 03:02:13;;;;;;;7.60;4.90;;;;;;;;;;107387;1253;61192;-80
2023/07/18 03:04:40;;;;;;;9.20;5.80;;;;;;;;;;107442;1254;61238;-80
2023/07/18 03:07:07;;;;;;;6.40;5.00;;;;;;;;;;107379;1249;61105;-80
2023/07/18 03:09:34;;;;;;;6.80;5.10;;;;;;;;;;107445;1249;61220;-81
2023/07/18 03:12:00;;;;;;;9.30;5.40;;;;;;;;;;107428;1250;61189;-81
2023/07/18 03:14:27;;;;;;;11.30;5.00;;;;;;;;;;107490;1253;61334;-81
2023/07/18 03:16:53;;;;;;;9.30;5.00;;;;;;;;;;107442;1250;61112;-81
2023/07/18 03:19:19;;;;;;;13.40;4.20;;;;;;;;;;107522;1250;61331;-81
2023/07/18 03:21:46;;;;;;;8.00;4.60;;;;;;;;;;107466;1250;61228;-81
2023/07/18 03:24:12;;;;;;;10.60;4.10;;;;;;;;;;107437;1249;61204;-80
2023/07/18 03:26:39;;;;;;;15.10;7.20;;;;;;;;;;107502;1251;61247;-80
2023/07/18 03:29:05;;;;;;;7.70;6.00;;;;;;;;;;107489;1252;61346;-81
2023/07/18 03:31:32;;;;;;;10.80;8.20;;;;;;;;;;107433;1250;61340;-81
2023/07/18 03:33:58;;;;;;;12.40;7.80;;;;;;;;;;107424;1252;61249;-81
2023/07/18 03:36:26;;;;;;;13.80;7.00;;;;;;;;;;107445;1250;61062;-81
2023/07/18 03:38:52;;;;;;;21.10;8.50;;;;;;;;;;107499;1252;61307;-81
2023/07/18 03:41:19;;;;;;;14.30;8.50;;;;;;;;;;107467;1250;61132;-81
2023/07/18 03:43:46;;;;;;;18.10;9.50;;;;;;;;;;107591;1252;61240;-82
2023/07/18 03:46:12;;;;;;;14.20;9.80;;;;;;;;;;107491;1252;61328;-83
2023/07/18 03:48:38;;;;;;;21.10;13.80;;;;;;;;;;107443;1250;61320;-81
2023/07/18 03:51:05;;;;;;;175.40;117.00;;;;;;;;;;107460;1250;61232;-81
2023/07/18 03:53:32;;;;;;;40.20;27.40;;;;;;;;;;107463;1250;61326;-82
2023/07/18 03:56:02;;;;;;;27.00;19.70;;;;;;;;;;107454;1252;61261;-81
2023/07/18 03:58:29;;;;;;;30.10;19.40;;;;;;;;;;107451;1248;61211;-82
2023/07/18 04:00:55;;;;;;;24.80;17.30;;;;;;;;;;107463;1252;61183;-81
2023/07/18 04:03:22;;;;;;;18.90;15.70;;;;;;;;;;107470;1250;61227;-81
2023/07/18 04:05:49;;;;;;;17.60;13.00;;;;;;;;;;107668;1253;61218;-82
2023/07/18 04:08:16;;;;;;;17.40;12.90;;;;;;;;;;107516;1248;59256;-81
2023/07/18 04:10:42;;;;;;;15.50;12.10;;;;;;;;;;107491;1249;61135;-81
2023/07/18 04:13:08;;;;;;;20.10;11.80;;;;;;;;;;107486;1249;61241;-82
2023/07/18 04:15:35;;;;;;;14.90;10.30;;;;;;;;;;107457;1249;61280;-81
2023/07/18 04:18:01;;;;;;;17.50;10.90;;;;;;;;;;107492;1250;61158;-82
2023/07/18 04:20:28;;;;;;;14.10;8.80;;;;;;;;;;107494;1251;61343;-81
2023/07/18 04:22:54;;;;;;;18.50;10.50;;;;;;;;;;107459;1252;61218;-81
2023/07/18 04:25:20;;;;;;;18.40;9.60;;;;;;;;;;107441;1252;61222;-81
2023/07/18 04:27:47;;;;;;;14.90;9.40;;;;;;;;;;107468;1251;61230;-81
2023/07/18 04:30:13;;;;;;;12.40;7.40;;;;;;;;;;107467;1251;61234;-81
2023/07/18 04:32:41;;;;;;;12.50;6.80;;;;;;;;;;107424;1250;61218;-82
2023/07/18 04:35:08;;;;;;;12.50;7.60;;;;;;;;;;107483;1255;61235;-81
2023/07/18 04:37:35;;;;;;;11.10;7.40;;;;;;;;;;107409;1250;61166;-81
2023/07/18 04:40:02;;;;;;;7.90;7.00;;;;;;;;;;107403;1248;61199;-82
2023/07/18 04:42:29;;;;;;;11.10;7.30;;;;;;;;;;107456;1252;61236;-82
2023/07/18 04:44:56;;;;;;;17.70;7.30;;;;;;;;;;107437;1251;61133;-82
2023/07/18 04:47:22;;;;;;;10.10;7.40;;;;;;;;;;107557;1252;61305;-84
2023/07/18 04:49:49;;;;;;;9.00;6.40;;;;;;;;;;107460;1251;61283;-81
2023/07/18 04:52:15;;;;;;;20.00;8.90;;;;;;;;;;107459;1252;61089;-81
2023/07/18 04:54:42;;;;;;;13.50;7.90;;;;;;;;;;107539;1251;61332;-83
2023/07/18 04:57:08;;;;;;;10.30;7.60;;;;;;;;;;107535;1250;61263;-81
2023/07/18 04:59:35;;;;;;;12.00;7.90;;;;;;;;;;107446;1251;61410;-82
2023/07/18 05:02:01;;;;;;;13.00;8.10;;;;;;;;;;107536;1251;61144;-81
2023/07/18 05:04:28;;;;;;;15.50;8.80;;;;;;;;;;107385;1253;61257;-82
2023/07/18 05:06:57;;;;;;;14.50;7.40;;;;;;;;;;107413;1254;61286;-81
2023/07/18 05:09:23;;;;;;;9.00;6.90;;;;;;;;;;107618;1251;61077;-81
2023/07/18 05:11:50;;;;;;;14.00;7.00;;;;;;;;;;107490;1251;61417;-82
2023/07/18 05:14:16;;;;;;;11.60;6.70;;;;;;;;;;107459;1253;61221;-82
2023/07/18 05:16:42;;;;;;;20.80;7.80;;;;;;;;;;107941;1247;61275;-81
2023/07/18 05:19:09;;;;;;;10.20;7.10;;;;;;;;;;107623;1251;61102;-81
2023/07/18 05:21:35;;;;;;;9.40;6.90;;;;;;;;;;107452;1254;61257;-81
2023/07/18 05:24:02;;;;;;;14.60;7.00;;;;;;;;;;107530;1251;61337;-81
2023/07/18 05:26:28;;;;;;;15.50;6.30;;;;;;;;;;107377;1253;62272;-82
2023/07/18 05:28:55;;;;;;;12.90;7.00;;;;;;;;;;107503;1251;61462;-82
2023/07/18 05:31:21;;;;;;;13.60;7.30;;;;;;;;;;107559;1251;61305;-82
2023/07/18 05:33:47;;;;;;;14.40;7.90;;;;;;;;;;107496;1253;61436;-82
2023/07/18 05:36:16;;;;;;;16.90;7.70;;;;;;;;;;107443;1252;61259;-82
2023/07/18 05:38:43;;;;;;;10.30;6.50;;;;;;;;;;107470;1253;61149;-80
2023/07/18 05:41:09;;;;;;;15.00;6.10;;;;;;;;;;107440;1251;61285;-82
2023/07/18 05:43:35;;;;;;;10.60;6.60;;;;;;;;;;107366;1251;61993;-81
2023/07/18 05:46:02;;;;;;;9.70;5.00;;;;;;;;;;107533;1251;61135;-82
2023/07/18 05:48:28;;;;;;;10.10;4.30;;;;;;;;;;107496;1253;61260;-78
2023/07/18 05:50:55;;;;;;;12.10;4.60;;;;;;;;;;107456;1251;61330;-80
2023/07/18 05:53:22;;;;;;;7.50;4.60;;;;;;;;;;107800;1253;61346;-80
2023/07/18 05:55:50;;;;;;;15.60;5.30;;;;;;;;;;107606;1253;61245;-82
2023/07/18 05:58:17;;;;;;;12.50;4.60;;;;;;;;;;107458;1250;61112;-81
2023/07/18 06:00:43;;;;;;;13.80;5.10;;;;;;;;;;107533;1251;61148;-82
2023/07/18 06:03:09;;;;;;;12.30;4.80;;;;;;;;;;107684;1253;59870;-81
2023/07/18 06:05:36;;;;;;;9.10;4.40;;;;;;;;;;107619;1251;60331;-81
2023/07/18 06:08:04;;;;;;;9.50;4.40;;;;;;;;;;107719;1248;61306;-80
2023/07/18 06:10:31;;;;;;;12.40;4.60;;;;;;;;;;107715;1249;59451;-82
2023/07/18 06:12:57;;;;;;;6.90;3.60;;;;;;;;;;107644;1253;61290;-80
2023/07/18 06:15:25;;;;;;;8.70;3.50;;;;;;;;;;107823;1253;61256;-80
2023/07/18 06:17:52;;;;;;;9.50;4.10;;;;;;;;;;107895;1251;61348;-82
2023/07/18 06:20:18;;;;;;;7.10;4.20;;;;;;;;;;107914;1248;61180;-82
2023/07/18 06:22:46;;;;;;;6.50;3.90;;;;;;;;;;107543;1252;61153;-81
2023/07/18 06:25:15;;;;;;;11.00;3.60;;;;;;;;;;107885;1251;60001;-82
2023/07/18 06:27:41;;;;;;;6.20;3.10;;;;;;;;;;107846;1250;61235;-84
2023/07/18 06:30:08;;;;;;;10.30;3.60;;;;;;;;;;107742;1251;61343;-82
2023/07/18 06:32:35;;;;;;;8.90;3.40;;;;;;;;;;107977;1253;61216;-83
2023/07/18 06:35:03;;;;;;;6.10;3.90;;;;;;;;;;107938;1252;61331;-82
2023/07/18 06:37:29;;;;;;;8.40;3.60;;;;;;;;;;107646;1251;61218;-81
2023/07/18 06:39:56;;;;;;;6.40;4.00;;;;;;;;;;107964;1249;61205;-82
2023/07/18 06:42:22;;;;;;;7.50;4.10;;;;;;;;;;107750;1251;61151;-83
2023/07/18 06:44:49;;;;;;;8.00;4.00;;;;;;;;;;107735;1251;61535;-81
2023/07/18 06:47:15;;;;;;;14.70;4.40;;;;;;;;;;107862;1251;61360;-82
2023/07/18 06:49:41;;;;;;;13.20;4.30;;;;;;;;;;108081;1253;61285;-81
2023/07/18 06:52:08;;;;;;;11.60;3.90;;;;;;;;;;108177;1250;59932;-81
2023/07/18 06:54:34;;;;;;;20.80;4.30;;;;;;;;;;108204;1251;61231;-81
2023/07/18 06:57:01;;;;;;;8.10;4.20;;;;;;;;;;108149;1251;60423;-81
2023/07/18 06:59:27;;;;;;;7.80;3.40;;;;;;;;;;107731;1251;60254;-82
2023/07/18 07:01:54;;;;;;;5.60;3.40;;;;;;;;;;107846;1247;61533;-81
2023/07/18 07:04:20;;;;;;;6.80;3.10;;;;;;;;;;107890;1250;61326;-82
2023/07/18 07:06:47;;;;;;;7.90;4.00;;;;;;;;;;107910;1251;61361;-81
2023/07/18 07:09:13;;;;;;;6.80;3.60;;;;;;;;;;107952;1252;157319;-82
2023/07/18 07:11:40;;;;;;;5.20;3.80;;;;;;;;;;107971;1253;61348;-81
2023/07/18 07:14:07;;;;;;;9.70;3.80;;;;;;;;;;107920;1251;59893;-81
2023/07/18 07:16:33;;;;;;;6.60;3.50;;;;;;;;;;108293;1253;61240;-80
2023/07/18 07:19:00;;;;;;;8.10;3.00;;;;;;;;;;107799;1250;61176;-80
2023/07/18 07:21:27;;;;;;;5.00;3.10;;;;;;;;;;108239;1251;61085;-82
2023/07/18 07:23:54;;;;;;;8.40;3.70;;;;;;;;;;107997;1251;61130;-81
2023/07/18 07:26:20;;;;;;;5.30;3.30;;;;;;;;;;107955;1253;60907;-81
2023/07/18 07:28:46;;;;;;;8.90;3.40;;;;;;;;;;107695;1253;61314;-81
2023/07/18 07:31:14;;;;;;;9.70;3.30;;;;;;;;;;107861;1252;61283;-80
2023/07/18 07:33:41;;;;;;;6.60;3.70;;;;;;;;;;107651;1251;59457;-82
2023/07/18 07:36:09;;;;;;;6.60;3.90;;;;;;;;;;107726;1254;61276;-82
2023/07/18 07:38:36;;;;;;;6.80;3.20;;;;;;;;;;107747;1250;61270;-82
2023/07/18 07:41:06;;;;;;;7.90;3.40;;;;;;;;;;107810;1253;61316;-80
2023/07/18 07:43:33;;;;;;;7.90;3.40;;;;;;;;;;107773;1251;60348;-81
2023/07/18 07:45:59;;;;;;;8.60;3.30;;;;;;;;;;107790;1250;61228;-83
2023/07/18 07:48:25;;;;;;;8.50;3.40;;;;;;;;;;107648;1252;59557;-82
2023/07/18 07:50:52;;;;;;;11.10;3.90;;;;;;;;;;107737;1249;59254;-82
2023/07/18 07:53:18;;;;;;;8.10;3.90;;;;;;;;;;107746;1251;61234;-82
2023/07/18 07:55:44;;;;;;;6.50;3.50;;;;;;;;;;107852;1248;59910;-82
2023/07/18 07:58:11;;;;;;;7.30;3.10;;;;;;;;;;107912;1252;61337;-81
2023/07/18 08:00:37;;;;;;;3.60;2.80;;;;;;;;;;108059;1250;61333;-83
2023/07/18 08:03:04;;;;;;;4.60;2.60;;;;;;;;;;108038;1251;61347;-83
2023/07/18 08:05:30;;;;;;;6.00;2.80;;;;;;;;;;107857;1251;61292;-82
2023/07/18 08:07:56;;;;;;;7.80;3.40;;;;;;;;;;107712;1251;61369;-81
2023/07/18 08:10:23;;;;;;;7.60;4.00;;;;;;;;;;107891;1253;61266;-82
2023/07/18 08:12:50;;;;;;;7.00;4.60;;;;;;;;;;107909;1253;61291;-82
2023/07/18 08:15:16;;;;;;;4.10;2.90;;;;;;;;;;107890;1251;61270;-80
2023/07/18 08:17:42;;;;;;;7.00;2.50;;;;;;;;;;107724;1253;61250;-82
2023/07/18 08:20:10;;;;;;;6.70;3.40;;;;;;;;;;107953;1251;61281;-81
2023/07/18 08:22:36;;;;;;;7.30;3.10;;;;;;;;;;108095;1251;61337;-83
2023/07/18 08:25:03;;;;;;;3.80;2.50;;;;;;;;;;107998;1252;61221;-83
2023/07/18 08:27:30;;;;;;;5.10;2.30;;;;;;;;;;109951;1248;60915;-81
2023/07/18 08:29:57;;;;;;;4.70;2.10;;;;;;;;;;109988;1251;59262;-82
2023/07/18 08:32:23;;;;;;;6.10;2.90;;;;;;;;;;109947;1251;59041;-81
2023/07/18 08:34:49;;;;;;;4.60;2.60;;;;;;;;;;107987;1251;61314;-81
2023/07/18 08:37:16;;;;;;;6.40;2.70;;;;;;;;;;107835;1251;59160;-81
2023/07/18 08:39:42;;;;;;;5.00;2.60;;;;;;;;;;107631;1251;61167;-82
2023/07/18 08:42:09;;;;;;;6.20;2.90;;;;;;;;;;107760;1250;61116;-81
2023/07/18 08:44:36;;;;;;;8.00;2.60;;;;;;;;;;107822;1250;61158;-81
2023/07/18 08:47:02;;;;;;;7.40;2.80;;;;;;;;;;107811;1248;61972;-83
2023/07/18 08:49:29;;;;;;;5.70;2.90;;;;;;;;;;107736;1253;62250;-82
2023/07/18 08:51:56;;;;;;;4.70;2.20;;;;;;;;;;107870;1254;61416;-82
2023/07/18 08:54:22;;;;;;;5.60;2.10;;;;;;;;;;107763;1251;59322;-81
2023/07/18 08:56:48;;;;;;;5.00;2.40;;;;;;;;;;107745;1251;61184;-82
2023/07/18 08:59:16;;;;;;;7.30;2.40;;;;;;;;;;107679;1249;61238;-81
2023/07/18 09:01:49;;;;;;;5.40;1.90;;;;;;;;;;107855;1253;61112;-81
2023/07/18 09:04:15;;;;;;;5.20;2.60;;;;;;;;;;107905;1249;61270;-82
2023/07/18 09:06:45;;;;;;;3.50;2.10;;;;;;;;;;107618;1250;61288;-82
2023/07/18 09:09:21;;;;;;;7.60;3.10;;;;;;;;;;107560;1253;61318;-83
2023/07/18 09:11:59;;;;;;;3.60;1.90;;;;;;;;;;107854;1250;61335;-82
2023/07/18 09:14:30;;;;;;;4.60;2.70;;;;;;;;;;107787;1248;61193;-83
2023/07/18 09:16:56;;;;;;;4.50;2.30;;;;;;;;;;107778;1250;61132;-83
2023/07/18 09:19:38;;;;;;;4.70;2.10;;;;;;;;;;107692;1249;61364;-82
2023/07/18 09:22:05;;;;;;;7.00;2.20;;;;;;;;;;107722;1252;61274;-82
2023/07/18 09:24:32;;;;;;;3.60;2.00;;;;;;;;;;107791;1253;61299;-82
2023/07/18 09:27:00;;;;;;;6.20;2.20;;;;;;;;;;107907;1251;61066;-82
2023/07/18 09:29:26;;;;;;;4.70;2.00;;;;;;;;;;108331;1249;61356;-82
2023/07/18 09:31:53;;;;;;;3.30;2.00;;;;;;;;;;108364;1249;60000;-83
2023/07/18 09:34:19;;;;;;;5.60;2.50;;;;;;;;;;108308;1249;61158;-82
2023/07/18 09:36:59;;;;;;;5.70;2.10;;;;;;;;;;107906;1251;61267;-84
2023/07/18 09:39:25;;;;;;;4.00;2.30;;;;;;;;;;107840;1251;61188;-82
2023/07/18 09:41:52;;;;;;;3.50;2.20;;;;;;;;;;108061;1249;60950;-82
2023/07/18 09:44:19;;;;;;;8.00;2.10;;;;;;;;;;107818;1250;61276;-83
2023/07/18 09:46:45;;;;;;;5.00;3.10;;;;;;;;;;107850;1252;61074;-82
2023/07/18 09:49:11;;;;;;;4.40;3.10;;;;;;;;;;107852;1250;61240;-82
2023/07/18 09:51:38;;;;;;;3.70;2.60;;;;;;;;;;107942;1254;59466;-82
2023/07/18 09:54:05;;;;;;;4.70;2.00;;;;;;;;;;107817;1253;61255;-83
2023/07/18 09:56:35;;;;;;;2.70;1.70;;;;;;;;;;107678;1253;61343;-82
2023/07/18 09:59:05;;;;;;;5.70;2.10;;;;;;;;;;107522;1251;61118;-83
2023/07/18 10:01:32;;;;;;;4.00;2.00;;;;;;;;;;107829;1249;61218;-83
2023/07/18 10:03:58;;;;;;;3.60;1.90;;;;;;;;;;107759;1250;61699;-83
2023/07/18 10:06:25;;;;;;;2.60;1.70;;;;;;;;;;107868;1249;61129;-81
2023/07/18 10:08:52;;;;;;;4.50;2.00;;;;;;;;;;107623;1250;61161;-81
2023/07/18 10:11:18;;;;;;;3.30;1.80;;;;;;;;;;107802;1250;61171;-83
2023/07/18 10:13:54;;;;;;;5.30;2.20;;;;;;;;;;107995;1251;61344;-82
2023/07/18 10:16:20;;;;;;;4.70;2.50;;;;;;;;;;107774;1251;61203;-84
2023/07/18 10:18:47;;;;;;;3.00;2.10;;;;;;;;;;107724;1251;61311;-84
2023/07/18 10:21:27;;;;;;;6.60;2.00;;;;;;;;;;107816;1250;61369;-84
2023/07/18 10:23:53;;;;;;;4.20;2.30;;;;;;;;;;107800;1250;61249;-84
2023/07/18 10:26:29;;;;;;;3.30;2.00;;;;;;;;;;107793;1250;61280;-83
2023/07/18 10:28:58;;;;;;;4.10;2.30;;;;;;;;;;107627;1249;61212;-83
2023/07/18 10:31:34;;;;;;;4.40;2.30;;;;;;;;;;107834;1251;61267;-84
2023/07/18 10:34:09;;;;;;;4.70;1.90;;;;;;;;;;107665;1252;61303;-82
2023/07/18 10:36:36;;;;;;;8.20;2.50;;;;;;;;;;107844;1251;61167;-81
2023/07/18 10:39:09;;;;;;;4.20;2.00;;;;;;;;;;107763;1250;61347;-81
2023/07/18 10:41:35;;;;;;;5.60;2.50;;;;;;;;;;107536;1249;61325;-81
2023/07/18 10:44:02;;;;;;;5.70;2.60;;;;;;;;;;107960;1249;61325;-80
2023/07/18 10:46:35;;;;;;;3.80;2.60;;;;;;;;;;107992;1251;61253;-81
2023/07/18 10:49:02;;;;;;;6.70;2.70;;;;;;;;;;107844;1249;61326;-81
2023/07/18 10:51:29;;;;;;;6.30;2.60;;;;;;;;;;108032;1252;61353;-80
2023/07/18 10:53:55;;;;;;;3.20;2.20;;;;;;;;;;107957;1250;61222;-81
2023/07/18 10:56:22;;;;;;;5.20;2.40;;;;;;;;;;107984;1250;61202;-81
2023/07/18 10:58:51;;;;;;;3.70;2.40;;;;;;;;;;107823;1249;61218;-84
2023/07/18 11:01:17;;;;;;;5.00;2.80;;;;;;;;;;107714;1252;61222;-84
2023/07/18 11:03:47;;;;;;;5.20;2.90;;;;;;;;;;107858;1251;61088;-82
2023/07/18 11:06:14;;;;;;;4.50;2.50;;;;;;;;;;107576;1248;61148;-81
2023/07/18 11:08:41;;;;;;;;;;;;;;;;;;107627;1249;61225;-83
2023/07/18 11:11:07;;;;;;;4.40;2.20;;;;;;;;;;107669;1249;61151;-84
2023/07/18 11:13:34;;;;;;;3.50;2.20;;;;;;;;;;108036;1249;61142;-84
2023/07/18 11:16:02;;;;;;;5.40;2.30;;;;;;;;;;107568;1249;61180;-82
2023/07/18 11:18:48;;;;;;;3.40;2.00;;;;;;;;;;107588;1249;59588;-82
2023/07/18 11:21:16;;;;;;;5.00;2.10;;;;;;;;;;107639;1250;61227;-83
2023/07/18 11:23:43;;;;;;;;;;;;;;;;;;107732;1250;61320;-82
2023/07/18 11:26:12;;;;;;;10.20;2.30;;;;;;;;;;107550;1248;61269;-83
2023/07/18 11:28:39;;;;;;;4.90;2.40;;;;;;;;;;107771;1252;61106;-83
2023/07/18 11:31:06;;;;;;;4.40;2.80;;;;;;;;;;107772;1249;59090;-83
2023/07/18 11:33:33;;;;;;;3.70;2.10;;;;;;;;;;107456;1249;61221;-83
2023/07/18 11:35:59;;;;;;;5.70;2.20;;;;;;;;;;107660;1250;61275;-83
2023/07/18 11:38:29;;;;;;;4.50;2.30;;;;;;;;;;107637;1250;59652;-82
2023/07/18 11:40:55;;;;;;;3.00;1.90;;;;;;;;;;107621;1248;61124;-82
2023/07/18 11:43:22;;;;;;;6.10;2.60;;;;;;;;;;107628;1250;59509;-81
2023/07/18 11:45:48;;;;;;;4.90;2.60;;;;;;;;;;107626;1250;61154;-83
2023/07/18 11:48:18;;;;;;;3.50;2.00;;;;;;;;;;107579;1250;61374;-82
2023/07/18 11:50:45;;;;;;;6.80;2.70;;;;;;;;;;107468;1251;61180;-81
2023/07/18 11:53:11;;;;;;;4.30;2.10;;;;;;;;;;107705;1250;61251;-81
2023/07/18 11:55:38;;;;;;;5.90;2.20;;;;;;;;;;107922;1249;61153;-83
2023/07/18 11:58:07;;;;;;;3.40;2.30;;;;;;;;;;107670;1252;61333;-83
2023/07/18 12:00:37;;;;;;;4.70;2.50;;;;;;;;;;107717;1250;62435;-82
2023/07/18 12:03:04;;;;;;;6.30;3.40;;;;;;;;;;107941;1250;61225;-83
2023/07/18 12:05:30;;;;;;;6.40;2.10;;;;;;;;;;107589;1249;61275;-82
2023/07/18 12:07:57;;;;;;;4.20;2.10;;;;;;;;;;107459;1251;61333;-81
2023/07/18 12:10:23;;;;;;;3.00;1.80;;;;;;;;;;107588;1252;61173;-81
2023/07/18 12:12:49;;;;;;;3.40;2.20;;;;;;;;;;107705;1248;61266;-82
2023/07/18 12:15:16;;;;;;;3.90;1.90;;;;;;;;;;107365;1251;61288;-82
2023/07/18 12:17:42;;;;;;;4.10;2.00;;;;;;;;;;107531;1252;61235;-82
2023/07/18 12:20:09;;;;;;;5.30;3.80;;;;;;;;;;107579;1250;61339;-82
2023/07/18 12:22:38;;;;;;;6.80;2.70;;;;;;;;;;107649;1252;61248;-82
2023/07/18 12:25:05;;;;;;;4.70;2.50;;;;;;;;;;107666;1252;61149;-84
2023/07/18 12:27:31;;;;;;;3.70;2.20;;;;;;;;;;107461;1249;61224;-82
2023/07/18 12:29:58;;;;;;;4.60;1.70;;;;;;;;;;107557;1252;61344;-83
2023/07/18 12:32:25;;;;;;;4.40;2.20;;;;;;;;;;107634;1250;61141;-83
2023/07/18 12:34:52;;;;;;;4.80;2.30;;;;;;;;;;108583;1249;61161;-82
2023/07/18 12:37:19;;;;;;;5.10;2.40;;;;;;;;;;107757;1250;61356;-83
2023/07/18 12:39:45;;;;;;;5.70;2.30;;;;;;;;;;107434;1249;61254;-81
2023/07/18 12:42:12;;;;;;;5.00;2.10;;;;;;;;;;107829;1249;61260;-81
2023/07/18 12:44:39;;;;;;;4.50;2.10;;;;;;;;;;107665;1252;60218;-83
2023/07/18 12:47:06;;;;;;;;;;;;;;;;;;107439;1252;61141;-83
2023/07/18 12:49:35;;;;;;;4.20;2.20;;;;;;;;;;107481;1249;61139;-81
2023/07/18 12:52:02;;;;;;;3.90;1.90;;;;;;;;;;107661;1250;61375;-83
2023/07/18 12:54:29;;;;;;;3.80;2.10;;;;;;;;;;107509;1251;61245;-81
2023/07/18 12:56:55;;;;;;;4.70;2.30;;;;;;;;;;107433;1249;61243;-83
2023/07/18 12:59:21;;;;;;;3.60;1.70;;;;;;;;;;107535;1250;61349;-84
2023/07/18 13:01:49;;;;;;;3.60;2.00;;;;;;;;;;107701;1252;60335;-82
2023/07/18 13:04:15;;;;;;;3.70;2.00;;;;;;;;;;107625;1250;59421;-84
2023/07/18 13:06:42;;;;;;;2.90;1.70;;;;;;;;;;107464;1249;61225;-83
2023/07/18 13:09:08;;;;;;;4.40;2.00;;;;;;;;;;107511;1250;61240;-83
2023/07/18 13:11:35;;;;;;;4.90;2.90;;;;;;;;;;107777;1249;61237;-81
2023/07/18 13:14:02;;;;;;;2.40;1.90;;;;;;;;;;107699;1248;61142;-82
2023/07/18 13:16:28;;;;;;;4.70;2.30;;;;;;;;;;107584;1251;61295;-81
2023/07/18 13:18:55;;;;;;;3.50;2.30;;;;;;;;;;107422;1250;61244;-83
2023/07/18 13:21:22;;;;;;;2.10;1.60;;;;;;;;;;107689;1249;61097;-83
2023/07/18 13:23:49;;;;;;;4.40;1.70;;;;;;;;;;107606;1248;61192;-82
2023/07/18 13:26:15;;;;;;;6.00;1.90;;;;;;;;;;107574;1249;61288;-81
2023/07/18 13:28:41;;;;;;;3.60;1.60;;;;;;;;;;107583;1249;61293;-82
2023/07/18 13:31:10;;;;;;;4.50;1.90;;;;;;;;;;107712;1250;61273;-83
2023/07/18 13:33:38;;;;;;;5.00;2.20;;;;;;;;;;107744;1248;61211;-82
2023/07/18 13:36:07;;;;;;;3.70;2.00;;;;;;;;;;107716;1248;61403;-82
2023/07/18 13:38:34;;;;;;;4.40;1.80;;;;;;;;;;107520;1250;61156;-83
2023/07/18 13:41:03;;;;;;;4.90;2.10;;;;;;;;;;107658;1249;61095;-83
2023/07/18 13:43:30;;;;;;;5.20;2.20;;;;;;;;;;107693;1249;61277;-82
2023/07/18 13:45:56;;;;;;;4.40;2.00;;;;;;;;;;107590;1252;61196;-82
2023/07/18 13:48:22;;;;;;;3.10;2.00;;;;;;;;;;107577;1250;61423;-82
2023/07/18 13:50:49;;;;;;;2.50;1.70;;;;;;;;;;107826;1252;62000;-82
2023/07/18 13:53:15;;;;;;;4.00;2.20;;;;;;;;;;107694;1248;61338;-82
2023/07/18 13:55:42;;;;;;;3.30;2.20;;;;;;;;;;107826;1248;61330;-81
2023/07/18 13:58:08;;;;;;;4.40;1.70;;;;;;;;;;107837;1252;61305;-82
2023/07/18 14:00:35;;;;;;;3.50;2.10;;;;;;;;;;107828;1248;61280;-83
2023/07/18 14:03:01;;;;;;;3.20;2.10;;;;;;;;;;107823;1249;61243;-82
2023/07/18 14:05:28;;;;;;;3.30;1.80;;;;;;;;;;107753;1249;61234;-83
2023/07/18 14:07:54;;;;;;;2.80;2.00;;;;;;;;;;107890;1248;62253;-82
2023/07/18 14:10:20;;;;;;;4.60;3.00;;;;;;;;;;107885;1249;61201;-84
2023/07/18 14:12:47;;;;;;;4.70;1.80;;;;;;;;;;107869;1250;61170;-83
2023/07/18 14:15:13;;;;;;;4.80;2.20;;;;;;;;;;108007;1250;59845;-84
2023/07/18 14:17:40;;;;;;;2.50;1.70;;;;;;;;;;107911;1250;61235;-82
2023/07/18 14:20:07;;;;;;;2.80;2.00;;;;;;;;;;108127;1250;61376;-84
2023/07/18 14:22:34;;;;;;;4.90;1.90;;;;;;;;;;107809;1249;61275;-82
2023/07/18 14:25:01;;;;;;;2.90;1.90;;;;;;;;;;107988;1252;61221;-84